sensor_id;sensor_type;location;lat;lon;timestamp;pressure;altitude;pressure_sealevel;temperature
68952;BMP180;56000;51.146;17.112;2023-04-04T00:02:54;101346.00;;;0.40
68952;BMP180;56000;51.146;17.112;2023-04-04T00:05:28;101344.40;;;0.40
68952;BMP180;56000;51.146;17.112;2023-04-04T00:08:01;101340.20;;;0.40
68952;BMP180;56000;51.146;17.112;2023-04-04T00:10:34;101336.80;;;0.40
68952;BMP180;56000;51.146;17.112;2023-04-04T00:13:07;101339.20;;;0.40
68952;BMP180;56000;51.146;17.112;2023-04-04T00:15:41;101331.20;;;0.40
68952;BMP180;56000;51.146;17.112;2023-04-04T00:18:14;101324.20;;;0.40
68952;BMP180;56000;51.146;17.112;2023-04-04T00:20:47;101324.60;;;0.40
68952;BMP180;56000;51.146;17.112;2023-04-04T00:23:20;101324.80;;;0.40
68952;BMP180;56000;51.146;17.112;2023-04-04T00:25:53;101325.20;;;0.40
68952;BMP180;56000;51.146;17.112;2023-04-04T00:28:27;101322.00;;;0.40
68952;BMP180;56000;51.146;17.112;2023-04-04T00:31:00;101322.40;;;0.40
68952;BMP180;56000;51.146;17.112;2023-04-04T00:33:34;101315.60;;;0.40
68952;BMP180;56000;51.146;17.112;2023-04-04T00:36:08;101315.80;;;0.34
68952;BMP180;56000;51.146;17.112;2023-04-04T00:38:42;101318.20;;;0.30
68952;BMP180;56000;51.146;17.112;2023-04-04T00:41:15;101313.20;;;0.30
68952;BMP180;56000;51.146;17.112;2023-04-04T00:43:49;101310.60;;;0.30
68952;BMP180;56000;51.146;17.112;2023-04-04T00:46:22;101309.60;;;0.36
68952;BMP180;56000;51.146;17.112;2023-04-04T00:48:58;101307.00;;;0.40
68952;BMP180;56000;51.146;17.112;2023-04-04T00:51:31;101309.20;;;0.40
68952;BMP180;56000;51.146;17.112;2023-04-04T00:54:04;101306.40;;;0.40
68952;BMP180;56000;51.146;17.112;2023-04-04T00:56:38;101302.80;;;0.40
68952;BMP180;56000;51.146;17.112;2023-04-04T00:59:11;101303.20;;;0.40
68952;BMP180;56000;51.146;17.112;2023-04-04T01:01:45;101306.60;;;0.40
68952;BMP180;56000;51.146;17.112;2023-04-04T01:04:18;101303.20;;;0.40
68952;BMP180;56000;51.146;17.112;2023-04-04T01:06:51;101302.40;;;0.40
68952;BMP180;56000;51.146;17.112;2023-04-04T01:09:24;101298.80;;;0.40
68952;BMP180;56000;51.146;17.112;2023-04-04T01:11:59;101298.60;;;0.40
68952;BMP180;56000;51.146;17.112;2023-04-04T01:14:33;101296.60;;;0.40
68952;BMP180;56000;51.146;17.112;2023-04-04T01:17:08;101294.00;;;0.40
68952;BMP180;56000;51.146;17.112;2023-04-04T01:19:52;101295.40;;;0.40
68952;BMP180;56000;51.146;17.112;2023-04-04T01:22:27;101290.00;;;0.40
68952;BMP180;56000;51.146;17.112;2023-04-04T01:25:02;101286.00;;;0.38
68952;BMP180;56000;51.146;17.112;2023-04-04T01:27:36;101280.80;;;0.34
68952;BMP180;56000;51.146;17.112;2023-04-04T01:30:16;101280.80;;;0.30
68952;BMP180;56000;51.146;17.112;2023-04-04T01:32:55;101280.60;;;0.30
68952;BMP180;56000;51.146;17.112;2023-04-04T01:35:34;101280.40;;;0.30
68952;BMP180;56000;51.146;17.112;2023-04-04T01:38:23;101274.40;;;0.20
68952;BMP180;56000;51.146;17.112;2023-04-04T01:41:02;101272.20;;;0.20
68952;BMP180;56000;51.146;17.112;2023-04-04T01:43:37;101268.60;;;0.16
68952;BMP180;56000;51.146;17.112;2023-04-04T01:46:10;101260.00;;;0.10
68952;BMP180;56000;51.146;17.112;2023-04-04T01:48:45;101258.20;;;0.10
68952;BMP180;56000;51.146;17.112;2023-04-04T01:51:23;101247.60;;;0.10
68952;BMP180;56000;51.146;17.112;2023-04-04T01:53:57;101249.20;;;0.10
68952;BMP180;56000;51.146;17.112;2023-04-04T01:56:30;101251.80;;;0.10
68952;BMP180;56000;51.146;17.112;2023-04-04T01:59:03;101245.20;;;0.10
68952;BMP180;56000;51.146;17.112;2023-04-04T02:01:38;101252.40;;;0.10
68952;BMP180;56000;51.146;17.112;2023-04-04T02:04:11;101248.80;;;0.10
68952;BMP180;56000;51.146;17.112;2023-04-04T02:06:45;101252.40;;;0.14
68952;BMP180;56000;51.146;17.112;2023-04-04T02:09:19;101255.80;;;0.20
68952;BMP180;56000;51.146;17.112;2023-04-04T02:11:52;101255.80;;;0.20
68952;BMP180;56000;51.146;17.112;2023-04-04T02:14:25;101243.80;;;0.20
68952;BMP180;56000;51.146;17.112;2023-04-04T02:16:59;101239.40;;;0.20
68952;BMP180;56000;51.146;17.112;2023-04-04T02:19:32;101242.60;;;0.20
68952;BMP180;56000;51.146;17.112;2023-04-04T02:22:06;101243.80;;;0.20
68952;BMP180;56000;51.146;17.112;2023-04-04T02:24:39;101243.20;;;0.20
68952;BMP180;56000;51.146;17.112;2023-04-04T02:27:12;101251.20;;;0.14
68952;BMP180;56000;51.146;17.112;2023-04-04T02:29:45;101248.00;;;0.10
68952;BMP180;56000;51.146;17.112;2023-04-04T02:32:19;101247.20;;;0.10
68952;BMP180;56000;51.146;17.112;2023-04-04T02:34:52;101250.40;;;0.10
68952;BMP180;56000;51.146;17.112;2023-04-04T02:37:25;101249.00;;;0.10
68952;BMP180;56000;51.146;17.112;2023-04-04T02:39:59;101249.60;;;0.10
68952;BMP180;56000;51.146;17.112;2023-04-04T02:42:33;101254.80;;;0.10
68952;BMP180;56000;51.146;17.112;2023-04-04T02:45:08;101251.60;;;0.04
68952;BMP180;56000;51.146;17.112;2023-04-04T02:47:42;101258.00;;;0.02
68952;BMP180;56000;51.146;17.112;2023-04-04T02:50:21;101256.60;;;0.04
68952;BMP180;56000;51.146;17.112;2023-04-04T02:53:02;101255.20;;;0.04
68952;BMP180;56000;51.146;17.112;2023-04-04T02:55:37;101254.40;;;0.00
68952;BMP180;56000;51.146;17.112;2023-04-04T02:58:11;101256.20;;;0.00
68952;BMP180;56000;51.146;17.112;2023-04-04T03:00:44;101258.40;;;0.00
68952;BMP180;56000;51.146;17.112;2023-04-04T03:03:18;101256.20;;;0.00
68952;BMP180;56000;51.146;17.112;2023-04-04T03:05:52;101257.60;;;-0.02
68952;BMP180;56000;51.146;17.112;2023-04-04T03:08:25;101262.40;;;-0.10
68952;BMP180;56000;51.146;17.112;2023-04-04T03:11:01;101260.20;;;-0.16
68952;BMP180;56000;51.146;17.112;2023-04-04T03:13:35;101260.80;;;-0.20
68952;BMP180;56000;51.146;17.112;2023-04-04T03:16:10;101261.60;;;-0.30
68952;BMP180;56000;51.146;17.112;2023-04-04T03:18:51;101261.60;;;-0.36
68952;BMP180;56000;51.146;17.112;2023-04-04T03:21:24;101260.80;;;-0.40
68952;BMP180;56000;51.146;17.112;2023-04-04T03:23:59;101255.60;;;-0.50
68952;BMP180;56000;51.146;17.112;2023-04-04T03:26:33;101262.20;;;-0.60
68952;BMP180;56000;51.146;17.112;2023-04-04T03:29:06;101261.60;;;-0.60
68952;BMP180;56000;51.146;17.112;2023-04-04T03:31:40;101262.00;;;-0.70
68952;BMP180;56000;51.146;17.112;2023-04-04T03:34:13;101259.40;;;-0.70
68952;BMP180;56000;51.146;17.112;2023-04-04T03:36:46;101258.80;;;-0.80
68952;BMP180;56000;51.146;17.112;2023-04-04T03:39:19;101256.80;;;-0.80
68952;BMP180;56000;51.146;17.112;2023-04-04T03:41:54;101253.00;;;-0.80
68952;BMP180;56000;51.146;17.112;2023-04-04T03:44:27;101252.40;;;-0.78
68952;BMP180;56000;51.146;17.112;2023-04-04T03:47:01;101253.00;;;-0.70
68952;BMP180;56000;51.146;17.112;2023-04-04T03:49:37;101256.80;;;-0.70
68952;BMP180;56000;51.146;17.112;2023-04-04T03:52:10;101260.20;;;-0.70
68952;BMP180;56000;51.146;17.112;2023-04-04T03:54:43;101256.80;;;-0.62
68952;BMP180;56000;51.146;17.112;2023-04-04T03:57:17;101260.20;;;-0.62
68952;BMP180;56000;51.146;17.112;2023-04-04T03:59:50;101263.20;;;-0.70
68952;BMP180;56000;51.146;17.112;2023-04-04T04:02:25;101261.20;;;-0.70
68952;BMP180;56000;51.146;17.112;2023-04-04T04:04:58;101267.20;;;-0.70
68952;BMP180;56000;51.146;17.112;2023-04-04T04:07:32;101264.60;;;-0.68
68952;BMP180;56000;51.146;17.112;2023-04-04T04:10:06;101263.20;;;-0.60
68952;BMP180;56000;51.146;17.112;2023-04-04T04:12:40;101264.40;;;-0.60
68952;BMP180;56000;51.146;17.112;2023-04-04T04:15:13;101258.60;;;-0.60
68952;BMP180;56000;51.146;17.112;2023-04-04T04:17:47;101262.00;;;-0.50
68952;BMP180;56000;51.146;17.112;2023-04-04T04:20:21;101262.80;;;-0.50
68952;BMP180;56000;51.146;17.112;2023-04-04T04:22:55;101262.00;;;-0.50
68952;BMP180;56000;51.146;17.112;2023-04-04T04:25:28;101265.60;;;-0.40
68952;BMP180;56000;51.146;17.112;2023-04-04T04:28:09;101262.20;;;-0.40
68952;BMP180;56000;51.146;17.112;2023-04-04T04:30:43;101261.40;;;-0.40
68952;BMP180;56000;51.146;17.112;2023-04-04T04:33:18;101261.20;;;-0.40
68952;BMP180;56000;51.146;17.112;2023-04-04T04:36:00;101263.60;;;-0.36
68952;BMP180;56000;51.146;17.112;2023-04-04T04:38:41;101265.60;;;-0.30
68952;BMP180;56000;51.146;17.112;2023-04-04T04:41:15;101264.00;;;-0.30
68952;BMP180;56000;51.146;17.112;2023-04-04T04:43:51;101260.20;;;-0.30
68952;BMP180;56000;51.146;17.112;2023-04-04T04:46:27;101257.60;;;-0.30
68952;BMP180;56000;51.146;17.112;2023-04-04T04:49:00;101261.20;;;-0.22
68952;BMP180;56000;51.146;17.112;2023-04-04T04:51:34;101253.60;;;-0.20
68952;BMP180;56000;51.146;17.112;2023-04-04T04:54:07;101253.40;;;-0.20
68952;BMP180;56000;51.146;17.112;2023-04-04T04:56:41;101260.20;;;-0.20
68952;BMP180;56000;51.146;17.112;2023-04-04T04:59:15;101260.60;;;-0.10
68952;BMP180;56000;51.146;17.112;2023-04-04T05:01:50;101261.80;;;-0.10
68952;BMP180;56000;51.146;17.112;2023-04-04T05:04:23;101265.40;;;-0.06
68952;BMP180;56000;51.146;17.112;2023-04-04T05:07:06;101258.20;;;0.00
68952;BMP180;56000;51.146;17.112;2023-04-04T05:09:40;101263.60;;;0.00
68952;BMP180;56000;51.146;17.112;2023-04-04T05:12:14;101262.20;;;0.00
68952;BMP180;56000;51.146;17.112;2023-04-04T05:14:49;101265.40;;;0.10
68952;BMP180;56000;51.146;17.112;2023-04-04T05:17:22;101265.00;;;0.10
68952;BMP180;56000;51.146;17.112;2023-04-04T05:19:57;101265.80;;;0.10
68952;BMP180;56000;51.146;17.112;2023-04-04T05:22:30;101266.80;;;0.20
68952;BMP180;56000;51.146;17.112;2023-04-04T05:25:04;101268.20;;;0.20
68952;BMP180;56000;51.146;17.112;2023-04-04T05:27:37;101271.80;;;0.30
68952;BMP180;56000;51.146;17.112;2023-04-04T05:30:12;101272.00;;;0.30
68952;BMP180;56000;51.146;17.112;2023-04-04T05:32:54;101268.00;;;0.30
68952;BMP180;56000;51.146;17.112;2023-04-04T05:35:30;101273.00;;;0.32
68952;BMP180;56000;51.146;17.112;2023-04-04T05:38:03;101273.60;;;0.40
68952;BMP180;56000;51.146;17.112;2023-04-04T05:40:37;101267.40;;;0.40
68952;BMP180;56000;51.146;17.112;2023-04-04T05:43:15;101273.40;;;0.50
68952;BMP180;56000;51.146;17.112;2023-04-04T05:45:56;101273.20;;;0.50
68952;BMP180;56000;51.146;17.112;2023-04-04T05:48:31;101273.00;;;0.54
68952;BMP180;56000;51.146;17.112;2023-04-04T05:51:05;101274.00;;;0.60
68952;BMP180;56000;51.146;17.112;2023-04-04T05:53:52;101269.60;;;0.60
68952;BMP180;56000;51.146;17.112;2023-04-04T05:56:29;101266.60;;;0.70
68952;BMP180;56000;51.146;17.112;2023-04-04T05:59:02;101271.20;;;0.78
68952;BMP180;56000;51.146;17.112;2023-04-04T06:01:38;101270.00;;;0.80
68952;BMP180;56000;51.146;17.112;2023-04-04T06:04:15;101268.40;;;0.90
68952;BMP180;56000;51.146;17.112;2023-04-04T06:06:49;101264.20;;;0.92
68952;BMP180;56000;51.146;17.112;2023-04-04T06:09:24;101263.80;;;1.00
68952;BMP180;56000;51.146;17.112;2023-04-04T06:11:58;101266.20;;;1.00
68952;BMP180;56000;51.146;17.112;2023-04-04T06:14:31;101265.60;;;1.10
68952;BMP180;56000;51.146;17.112;2023-04-04T06:17:06;101268.80;;;1.10
68952;BMP180;56000;51.146;17.112;2023-04-04T06:19:39;101270.20;;;1.10
68952;BMP180;56000;51.146;17.112;2023-04-04T06:22:12;101262.40;;;1.20
68952;BMP180;56000;51.146;17.112;2023-04-04T06:24:50;101261.80;;;1.30
68952;BMP180;56000;51.146;17.112;2023-04-04T06:27:23;101260.20;;;1.34
68952;BMP180;56000;51.146;17.112;2023-04-04T06:29:56;101264.60;;;1.42
68952;BMP180;56000;51.146;17.112;2023-04-04T06:32:31;101262.00;;;1.50
68952;BMP180;56000;51.146;17.112;2023-04-04T06:35:07;101260.60;;;1.60
68952;BMP180;56000;51.146;17.112;2023-04-04T06:37:51;101256.00;;;1.66
68952;BMP180;56000;51.146;17.112;2023-04-04T06:40:27;101256.40;;;1.80
68952;BMP180;56000;51.146;17.112;2023-04-04T06:43:01;101250.00;;;1.90
68952;BMP180;56000;51.146;17.112;2023-04-04T06:45:47;101252.80;;;2.04
68952;BMP180;56000;51.146;17.112;2023-04-04T06:48:23;101245.20;;;2.20
68952;BMP180;56000;51.146;17.112;2023-04-04T06:50:56;101243.80;;;2.36
68952;BMP180;56000;51.146;17.112;2023-04-04T06:53:30;101245.80;;;2.40
68952;BMP180;56000;51.146;17.112;2023-04-04T06:56:04;101244.80;;;2.50
68952;BMP180;56000;51.146;17.112;2023-04-04T06:58:37;101242.20;;;2.60
68952;BMP180;56000;51.146;17.112;2023-04-04T07:01:10;101245.00;;;2.70
68952;BMP180;56000;51.146;17.112;2023-04-04T07:03:45;101245.00;;;2.70
68952;BMP180;56000;51.146;17.112;2023-04-04T07:06:18;101246.00;;;2.80
68952;BMP180;56000;51.146;17.112;2023-04-04T07:08:55;101243.80;;;2.80
68952;BMP180;56000;51.146;17.112;2023-04-04T07:11:29;101244.80;;;2.88
68952;BMP180;56000;51.146;17.112;2023-04-04T07:14:02;101246.60;;;2.90
68952;BMP180;56000;51.146;17.112;2023-04-04T07:16:35;101247.80;;;2.90
68952;BMP180;56000;51.146;17.112;2023-04-04T07:19:08;101247.80;;;3.00
68952;BMP180;56000;51.146;17.112;2023-04-04T07:21:41;101246.00;;;3.00
68952;BMP180;56000;51.146;17.112;2023-04-04T07:24:15;101244.00;;;2.90
68952;BMP180;56000;51.146;17.112;2023-04-04T07:26:48;101250.20;;;3.00
68952;BMP180;56000;51.146;17.112;2023-04-04T07:29:21;101246.40;;;3.10
68952;BMP180;56000;51.146;17.112;2023-04-04T07:31:57;101247.20;;;3.18
68952;BMP180;56000;51.146;17.112;2023-04-04T07:34:30;101240.00;;;3.10
68952;BMP180;56000;51.146;17.112;2023-04-04T07:37:04;101244.80;;;3.20
68952;BMP180;56000;51.146;17.112;2023-04-04T07:39:37;101244.40;;;3.30
68952;BMP180;56000;51.146;17.112;2023-04-04T07:42:10;101247.00;;;3.40
68952;BMP180;56000;51.146;17.112;2023-04-04T07:44:43;101251.20;;;3.50
68952;BMP180;56000;51.146;17.112;2023-04-04T07:47:17;101243.20;;;3.60
68952;BMP180;56000;51.146;17.112;2023-04-04T07:49:51;101246.40;;;3.70
68952;BMP180;56000;51.146;17.112;2023-04-04T07:52:27;101248.60;;;3.66
68952;BMP180;56000;51.146;17.112;2023-04-04T07:55:00;101243.80;;;3.60
68952;BMP180;56000;51.146;17.112;2023-04-04T07:57:34;101247.60;;;3.64
68952;BMP180;56000;51.146;17.112;2023-04-04T08:00:12;101249.00;;;3.70
68952;BMP180;56000;51.146;17.112;2023-04-04T08:02:47;101242.80;;;3.70
68952;BMP180;56000;51.146;17.112;2023-04-04T08:05:23;101241.20;;;3.74
68952;BMP180;56000;51.146;17.112;2023-04-04T08:07:56;101246.20;;;3.80
68952;BMP180;56000;51.146;17.112;2023-04-04T08:10:29;101246.20;;;3.80
68952;BMP180;56000;51.146;17.112;2023-04-04T08:13:03;101243.20;;;3.80
68952;BMP180;56000;51.146;17.112;2023-04-04T08:15:36;101243.40;;;3.80
68952;BMP180;56000;51.146;17.112;2023-04-04T08:18:10;101233.60;;;3.80
68952;BMP180;56000;51.146;17.112;2023-04-04T08:20:43;101232.40;;;3.78
68952;BMP180;56000;51.146;17.112;2023-04-04T08:23:16;101232.80;;;3.70
68952;BMP180;56000;51.146;17.112;2023-04-04T08:25:50;101241.00;;;3.70
68952;BMP180;56000;51.146;17.112;2023-04-04T08:28:23;101237.20;;;3.60
68952;BMP180;56000;51.146;17.112;2023-04-04T08:30:56;101236.40;;;3.50
68952;BMP180;56000;51.146;17.112;2023-04-04T08:33:29;101238.40;;;3.50
68952;BMP180;56000;51.146;17.112;2023-04-04T08:36:18;101238.20;;;3.50
68952;BMP180;56000;51.146;17.112;2023-04-04T08:38:52;101244.80;;;3.60
68952;BMP180;56000;51.146;17.112;2023-04-04T08:41:25;101244.80;;;3.60
68952;BMP180;56000;51.146;17.112;2023-04-04T08:43:59;101242.60;;;3.46
68952;BMP180;56000;51.146;17.112;2023-04-04T08:46:33;101244.20;;;3.50
68952;BMP180;56000;51.146;17.112;2023-04-04T08:49:07;101240.40;;;3.50
68952;BMP180;56000;51.146;17.112;2023-04-04T08:51:41;101231.40;;;3.50
68952;BMP180;56000;51.146;17.112;2023-04-04T08:54:17;101236.00;;;3.70
68952;BMP180;56000;51.146;17.112;2023-04-04T08:56:50;101230.00;;;4.00
68952;BMP180;56000;51.146;17.112;2023-04-04T08:59:24;101229.60;;;4.20
68952;BMP180;56000;51.146;17.112;2023-04-04T09:02:13;101221.60;;;4.30
68952;BMP180;56000;51.146;17.112;2023-04-04T09:04:47;101222.20;;;4.50
68952;BMP180;56000;51.146;17.112;2023-04-04T09:07:37;101217.20;;;4.80
68952;BMP180;56000;51.146;17.112;2023-04-04T09:10:12;101215.20;;;4.90
68952;BMP180;56000;51.146;17.112;2023-04-04T09:12:47;101209.60;;;5.00
68952;BMP180;56000;51.146;17.112;2023-04-04T09:15:26;101208.40;;;5.28
68952;BMP180;56000;51.146;17.112;2023-04-04T09:17:59;101199.60;;;5.36
68952;BMP180;56000;51.146;17.112;2023-04-04T09:20:41;101202.00;;;5.80
68952;BMP180;56000;51.146;17.112;2023-04-04T09:23:16;101202.60;;;5.96
68952;BMP180;56000;51.146;17.112;2023-04-04T09:25:52;101203.20;;;6.00
68952;BMP180;56000;51.146;17.112;2023-04-04T09:28:29;101202.20;;;5.90
68952;BMP180;56000;51.146;17.112;2023-04-04T09:31:05;101215.00;;;5.80
68952;BMP180;56000;51.146;17.112;2023-04-04T09:33:40;101207.60;;;5.60
68952;BMP180;56000;51.146;17.112;2023-04-04T09:36:14;101209.40;;;5.40
68952;BMP180;56000;51.146;17.112;2023-04-04T09:38:49;101214.00;;;5.20
68952;BMP180;56000;51.146;17.112;2023-04-04T09:41:26;101216.80;;;5.20
68952;BMP180;56000;51.146;17.112;2023-04-04T09:44:00;101217.60;;;5.22
68952;BMP180;56000;51.146;17.112;2023-04-04T09:46:34;101216.00;;;5.30
68952;BMP180;56000;51.146;17.112;2023-04-04T09:49:10;101219.80;;;5.48
68952;BMP180;56000;51.146;17.112;2023-04-04T09:51:50;101210.60;;;5.90
68952;BMP180;56000;51.146;17.112;2023-04-04T09:54:24;101206.20;;;7.08
68952;BMP180;56000;51.146;17.112;2023-04-04T09:57:01;101204.00;;;8.66
68952;BMP180;56000;51.146;17.112;2023-04-04T09:59:35;101203.20;;;9.20
68952;BMP180;56000;51.146;17.112;2023-04-04T10:02:10;101204.20;;;8.66
68952;BMP180;56000;51.146;17.112;2023-04-04T10:04:43;101201.00;;;8.34
68952;BMP180;56000;51.146;17.112;2023-04-04T10:07:21;101200.60;;;8.20
68952;BMP180;56000;51.146;17.112;2023-04-04T10:09:55;101203.20;;;7.90
68952;BMP180;56000;51.146;17.112;2023-04-04T10:12:29;101208.80;;;7.60
68952;BMP180;56000;51.146;17.112;2023-04-04T10:15:04;101204.80;;;7.30
68952;BMP180;56000;51.146;17.112;2023-04-04T10:17:41;101208.60;;;6.90
68952;BMP180;56000;51.146;17.112;2023-04-04T10:20:15;101205.00;;;6.70
68952;BMP180;56000;51.146;17.112;2023-04-04T10:22:48;101199.60;;;6.60
68952;BMP180;56000;51.146;17.112;2023-04-04T10:25:22;101201.80;;;6.56
68952;BMP180;56000;51.146;17.112;2023-04-04T10:27:56;101193.60;;;6.46
68952;BMP180;56000;51.146;17.112;2023-04-04T10:30:30;101193.20;;;6.40
68952;BMP180;56000;51.146;17.112;2023-04-04T10:33:12;101200.20;;;6.30
68952;BMP180;56000;51.146;17.112;2023-04-04T10:35:52;101203.00;;;6.30
68952;BMP180;56000;51.146;17.112;2023-04-04T10:38:30;101195.00;;;6.36
68952;BMP180;56000;51.146;17.112;2023-04-04T10:41:06;101197.80;;;6.52
68952;BMP180;56000;51.146;17.112;2023-04-04T10:43:42;101195.60;;;7.24
68952;BMP180;56000;51.146;17.112;2023-04-04T10:46:20;101192.80;;;7.50
68952;BMP180;56000;51.146;17.112;2023-04-04T10:49:01;101185.20;;;8.10
68952;BMP180;56000;51.146;17.112;2023-04-04T10:51:36;101195.20;;;8.00
68952;BMP180;56000;51.146;17.112;2023-04-04T10:54:24;101189.80;;;7.78
68952;BMP180;56000;51.146;17.112;2023-04-04T10:56:58;101187.40;;;7.36
68952;BMP180;56000;51.146;17.112;2023-04-04T10:59:33;101187.00;;;7.10
68952;BMP180;56000;51.146;17.112;2023-04-04T11:02:06;101186.60;;;6.86
68952;BMP180;56000;51.146;17.112;2023-04-04T11:04:40;101188.20;;;6.60
68952;BMP180;56000;51.146;17.112;2023-04-04T11:07:28;101182.80;;;6.50
68952;BMP180;56000;51.146;17.112;2023-04-04T11:10:14;101175.60;;;6.74
68952;BMP180;56000;51.146;17.112;2023-04-04T11:12:53;101173.60;;;6.76
68952;BMP180;56000;51.146;17.112;2023-04-04T11:15:54;101174.60;;;6.56
68952;BMP180;56000;51.146;17.112;2023-04-04T11:18:47;101177.40;;;6.30
68952;BMP180;56000;51.146;17.112;2023-04-04T11:21:21;101173.80;;;6.10
68952;BMP180;56000;51.146;17.112;2023-04-04T11:24:17;101168.40;;;6.20
68952;BMP180;56000;51.146;17.112;2023-04-04T11:26:52;101158.80;;;6.40
68952;BMP180;56000;51.146;17.112;2023-04-04T11:29:52;101157.60;;;6.30
68952;BMP180;56000;51.146;17.112;2023-04-04T11:32:44;101160.60;;;6.30
68952;BMP180;56000;51.146;17.112;2023-04-04T11:35:40;101162.80;;;6.00
68952;BMP180;56000;51.146;17.112;2023-04-04T11:38:20;101158.00;;;5.84
68952;BMP180;56000;51.146;17.112;2023-04-04T11:40:57;101160.20;;;5.60
68952;BMP180;56000;51.146;17.112;2023-04-04T11:43:33;101157.00;;;5.60
68952;BMP180;56000;51.146;17.112;2023-04-04T11:46:18;101152.00;;;5.78
68952;BMP180;56000;51.146;17.112;2023-04-04T11:48:52;101154.20;;;6.04
68952;BMP180;56000;51.146;17.112;2023-04-04T11:51:26;101154.40;;;6.42
68952;BMP180;56000;51.146;17.112;2023-04-04T11:54:01;101156.40;;;6.40
68952;BMP180;56000;51.146;17.112;2023-04-04T11:56:38;101155.60;;;6.30
68952;BMP180;56000;51.146;17.112;2023-04-04T11:59:11;101155.00;;;6.30
68952;BMP180;56000;51.146;17.112;2023-04-04T12:01:45;101158.80;;;6.52
68952;BMP180;56000;51.146;17.112;2023-04-04T12:04:21;101155.20;;;6.32
68952;BMP180;56000;51.146;17.112;2023-04-04T12:06:56;101154.00;;;6.16
68952;BMP180;56000;51.146;17.112;2023-04-04T12:09:30;101150.40;;;6.00
68952;BMP180;56000;51.146;17.112;2023-04-04T12:12:03;101153.40;;;5.90
68952;BMP180;56000;51.146;17.112;2023-04-04T12:14:38;101147.40;;;6.00
68952;BMP180;56000;51.146;17.112;2023-04-04T12:17:12;101144.60;;;6.44
68952;BMP180;56000;51.146;17.112;2023-04-04T12:19:47;101130.40;;;7.50
68952;BMP180;56000;51.146;17.112;2023-04-04T12:22:20;101137.20;;;8.96
68952;BMP180;56000;51.146;17.112;2023-04-04T12:24:53;101138.20;;;8.82
68952;BMP180;56000;51.146;17.112;2023-04-04T12:27:29;101136.00;;;8.20
68952;BMP180;56000;51.146;17.112;2023-04-04T12:30:03;101136.80;;;7.42
68952;BMP180;56000;51.146;17.112;2023-04-04T12:32:42;101144.40;;;6.78
68952;BMP180;56000;51.146;17.112;2023-04-04T12:35:16;101142.40;;;6.26
68952;BMP180;56000;51.146;17.112;2023-04-04T12:38:06;101145.00;;;5.90
68952;BMP180;56000;51.146;17.112;2023-04-04T12:40:41;101140.80;;;5.70
68952;BMP180;56000;51.146;17.112;2023-04-04T12:43:19;101139.60;;;5.66
68952;BMP180;56000;51.146;17.112;2023-04-04T12:45:55;101137.80;;;5.70
68952;BMP180;56000;51.146;17.112;2023-04-04T12:48:30;101143.20;;;5.90
68952;BMP180;56000;51.146;17.112;2023-04-04T12:51:05;101141.60;;;5.98
68952;BMP180;56000;51.146;17.112;2023-04-04T12:53:53;101137.60;;;6.00
68952;BMP180;56000;51.146;17.112;2023-04-04T12:56:30;101137.20;;;6.08
68952;BMP180;56000;51.146;17.112;2023-04-04T12:59:06;101131.00;;;6.44
68952;BMP180;56000;51.146;17.112;2023-04-04T13:01:41;101137.80;;;6.60
68952;BMP180;56000;51.146;17.112;2023-04-04T13:04:14;101140.80;;;6.60
68952;BMP180;56000;51.146;17.112;2023-04-04T13:06:48;101136.20;;;6.76
68952;BMP180;56000;51.146;17.112;2023-04-04T13:09:22;101131.20;;;6.94
68952;BMP180;56000;51.146;17.112;2023-04-04T13:12:03;101129.20;;;8.80
68952;BMP180;56000;51.146;17.112;2023-04-04T13:15:00;101119.80;;;8.80
68952;BMP180;56000;51.146;17.112;2023-04-04T13:17:47;101125.80;;;8.34
68952;BMP180;56000;51.146;17.112;2023-04-04T13:20:21;101121.40;;;7.78
68952;BMP180;56000;51.146;17.112;2023-04-04T13:22:59;101119.00;;;7.88
68952;BMP180;56000;51.146;17.112;2023-04-04T13:25:33;101116.60;;;8.10
68952;BMP180;56000;51.146;17.112;2023-04-04T13:28:07;101116.20;;;8.06
68952;BMP180;56000;51.146;17.112;2023-04-04T13:30:42;101105.80;;;7.80
68952;BMP180;56000;51.146;17.112;2023-04-04T13:33:20;101112.00;;;7.50
68952;BMP180;56000;51.146;17.112;2023-04-04T13:35:54;101119.40;;;7.10
68952;BMP180;56000;51.146;17.112;2023-04-04T13:38:28;101117.80;;;6.70
68952;BMP180;56000;51.146;17.112;2023-04-04T13:41:03;101114.60;;;6.40
68952;BMP180;56000;51.146;17.112;2023-04-04T13:43:36;101120.60;;;6.14
68952;BMP180;56000;51.146;17.112;2023-04-04T13:46:09;101114.60;;;5.82
68952;BMP180;56000;51.146;17.112;2023-04-04T13:48:42;101114.40;;;5.60
68952;BMP180;56000;51.146;17.112;2023-04-04T13:51:15;101110.60;;;5.60
68952;BMP180;56000;51.146;17.112;2023-04-04T13:53:49;101114.80;;;5.62
68952;BMP180;56000;51.146;17.112;2023-04-04T13:56:22;101114.60;;;5.60
68952;BMP180;56000;51.146;17.112;2023-04-04T13:58:55;101115.20;;;5.40
68952;BMP180;56000;51.146;17.112;2023-04-04T14:01:28;101113.40;;;5.32
68952;BMP180;56000;51.146;17.112;2023-04-04T14:04:01;101112.00;;;5.50
68952;BMP180;56000;51.146;17.112;2023-04-04T14:06:51;101111.40;;;5.80
68952;BMP180;56000;51.146;17.112;2023-04-04T14:09:24;101105.40;;;6.20
68952;BMP180;56000;51.146;17.112;2023-04-04T14:11:57;101106.20;;;6.54
68952;BMP180;56000;51.146;17.112;2023-04-04T14:14:32;101110.00;;;6.70
68952;BMP180;56000;51.146;17.112;2023-04-04T14:17:08;101109.40;;;6.68
68952;BMP180;56000;51.146;17.112;2023-04-04T14:19:42;101109.20;;;6.50
68952;BMP180;56000;51.146;17.112;2023-04-04T14:22:16;101105.20;;;6.40
68952;BMP180;56000;51.146;17.112;2023-04-04T14:24:49;101105.60;;;6.10
68952;BMP180;56000;51.146;17.112;2023-04-04T14:27:22;101102.40;;;5.90
68952;BMP180;56000;51.146;17.112;2023-04-04T14:29:55;101102.80;;;5.70
68952;BMP180;56000;51.146;17.112;2023-04-04T14:32:28;101116.80;;;5.50
68952;BMP180;56000;51.146;17.112;2023-04-04T14:35:04;101113.60;;;5.40
68952;BMP180;56000;51.146;17.112;2023-04-04T14:37:37;101109.00;;;5.40
68952;BMP180;56000;51.146;17.112;2023-04-04T14:40:12;101109.00;;;5.40
68952;BMP180;56000;51.146;17.112;2023-04-04T14:42:45;101102.00;;;5.54